Terminal Aerodrome Forecast
Issued by NWS Dodge City, KS

Home | Current Version | Previous Version | Text Only | Print | Product List | Glossary On
Versions: 1 2 3 4 5 6 7 8 9 10 11 12 13 14 15 16 17 18 19
000
FTUS43 KDDC 240400 AAA
TAFDDC
TAF AMD
KDDC 240411Z 2404/2424 17024G35KT P6SM SKC
     FM240600 34030G38KT P6SM BKN040
     FM240900 34025G32KT P6SM BKN090
     FM241300 34025G32KT P6SM SKC=

USA.gov is the U.S. government's official web portal to all federal, state and local government web resources and services.